Lac Du Flambeau, Wisconsin
Current Conditions -  °F | °C
As of 10:15 AM on Thursday 23 Oct 2014 (Local Time) from KARV Reporting Station
Light Rain Light Rain  
Wind Chill: 40°   Ceiling: 1000
Heat Index: 44°   Visibility: 3mi
Dew Point: 42°   Wind: 7mph
Humidity: 92%   Direction: 180°S
Pressure: 30.04"   Gusts: NA
Location:  45.97°N, 89.89°W
Report Text: KARV 231515Z AUTO 18006KT 3SM -RA BKN010 OVC013 07/06 A3004 RMK AO2 T00670055
Loading
Personal Weather Stations






























Interactive Weather Map
Tropical Storm Tracking
New forecast layout! Learn more

10-Day Weather Forecast

Advertisements
Track Severe Weather on mobile